Time;durP1;ratioP1;P1;durP2;ratioP2;P2;SDS_P1;SDS_P2;PMS_P1;PMS_P2;Temp;Humidity;BMP_temperature;BMP_pressure;BME280_temperature;BME280_humidity;BME280_pressure;Samples;Min_cycle;Max_cycle;Signal;HPM_P1;HPM_P2
2022/02/20 00:01:02;;;;;;;9.77;1.75;;;5.60;99.90;;;;;;5035385;28;20112;-88
2022/02/20 00:03:28;;;;;;;17.65;2.42;;;5.70;99.90;;;;;;5016783;28;20098;-87
2022/02/20 00:05:53;;;;;;;11.80;2.03;;;5.70;99.90;;;;;;5034832;28;20049;-87
2022/02/20 00:08:19;;;;;;;12.38;2.30;;;5.70;99.90;;;;;;5016745;28;20125;-88
2022/02/20 00:10:46;;;;;;;12.15;1.80;;;5.70;99.90;;;;;;5033855;28;20040;-87
2022/02/20 00:13:12;;;;;;;8.57;1.17;;;5.70;99.90;;;;;;5035927;28;20033;-88
2022/02/20 00:15:38;;;;;;;11.85;2.35;;;5.70;99.90;;;;;;5018182;28;20041;-89
2022/02/20 00:18:04;;;;;;;7.65;1.17;;;5.70;99.90;;;;;;5016780;28;20527;-89
2022/02/20 00:20:33;;;;;;;7.13;1.27;;;5.70;99.90;;;;;;5017008;28;20113;-87
2022/02/20 00:23:02;;;;;;;12.38;1.88;;;5.60;99.90;;;;;;5016500;28;20041;-89
2022/02/20 00:25:31;;;;;;;9.40;2.00;;;5.50;99.90;;;;;;5034984;28;20029;-89
2022/02/20 00:27:58;;;;;;;8.88;1.63;;;5.50;99.90;;;;;;5034375;28;20052;-90
2022/02/20 00:30:24;;;;;;;9.02;1.50;;;5.30;99.90;;;;;;5016334;28;20592;-88
2022/02/20 00:32:51;;;;;;;7.10;1.50;;;5.10;99.90;;;;;;5016264;28;20041;-86
2022/02/20 00:35:16;;;;;;;8.88;1.92;;;5.00;99.90;;;;;;5034392;28;20068;-89
2022/02/20 00:37:42;;;;;;;7.68;1.20;;;4.90;99.90;;;;;;5012697;28;20427;-88
2022/02/20 00:40:08;;;;;;;6.13;1.27;;;4.80;99.90;;;;;;5017903;28;20435;-85
2022/02/20 00:42:34;;;;;;;6.13;0.90;;;4.80;99.90;;;;;;5016585;28;20068;-88
2022/02/20 00:45:00;;;;;;;6.88;1.00;;;4.70;99.90;;;;;;5017105;28;20480;-87
2022/02/20 00:47:25;;;;;;;5.05;1.10;;;4.70;99.90;;;;;;5017641;28;20121;-88
2022/02/20 00:49:51;;;;;;;4.65;0.82;;;4.70;99.90;;;;;;5017838;28;20038;-87
2022/02/20 00:52:17;;;;;;;9.88;1.33;;;4.70;99.90;;;;;;5017440;28;20067;-87
2022/02/20 00:54:42;;;;;;;8.43;1.15;;;4.60;99.90;;;;;;5017364;28;20033;-86
2022/02/20 00:57:08;;;;;;;6.00;0.82;;;4.60;99.90;;;;;;5024179;28;20042;-85
2022/02/20 00:59:35;;;;;;;7.30;0.90;;;4.70;99.90;;;;;;5019834;28;20054;-89
2022/02/20 01:02:00;;;;;;;4.32;0.90;;;4.70;99.90;;;;;;5019961;28;20026;-87
2022/02/20 01:04:27;;;;;;;7.80;0.90;;;4.70;99.90;;;;;;5023408;28;20069;-87
2022/02/20 01:06:53;;;;;;;6.55;0.90;;;4.70;99.90;;;;;;5020756;28;20065;-87
2022/02/20 01:09:20;;;;;;;5.80;0.80;;;4.70;99.90;;;;;;5017170;28;20034;-88
2022/02/20 01:11:45;;;;;;;5.50;0.73;;;4.70;99.90;;;;;;5017922;28;20038;-86
2022/02/20 01:14:11;;;;;;;3.90;0.70;;;4.80;99.90;;;;;;5018242;28;20040;-88
2022/02/20 01:16:37;;;;;;;7.70;1.02;;;4.80;99.90;;;;;;5037690;28;20484;-85
2022/02/20 01:19:03;;;;;;;3.90;0.85;;;4.80;99.90;;;;;;5041994;28;20443;-83
2022/02/20 01:21:28;;;;;;;8.23;1.45;;;4.80;99.90;;;;;;5026630;28;20037;-86
2022/02/20 01:23:54;;;;;;;5.85;1.38;;;4.80;99.90;;;;;;5028310;28;20041;-83
2022/02/20 01:26:20;;;;;;;6.93;1.00;;;4.90;99.90;;;;;;5030022;28;20030;-83
2022/02/20 01:28:45;;;;;;;5.63;0.90;;;4.90;99.90;;;;;;5043174;28;20045;-83
2022/02/20 01:31:11;;;;;;;4.97;1.08;;;4.90;99.90;;;;;;5033267;28;20026;-85
2022/02/20 01:33:37;;;;;;;3.78;0.93;;;4.90;99.90;;;;;;5029970;28;20029;-86
2022/02/20 01:36:03;;;;;;;3.38;1.25;;;4.90;99.90;;;;;;5017629;28;20476;-86
2022/02/20 01:38:29;;;;;;;4.00;0.73;;;4.90;99.90;;;;;;5037613;28;20095;-88
2022/02/20 01:40:56;;;;;;;8.55;0.90;;;5.00;99.90;;;;;;5021566;28;20033;-89
2022/02/20 01:43:22;;;;;;;8.15;0.80;;;5.00;99.90;;;;;;5021229;28;20033;-87
2022/02/20 01:45:48;;;;;;;6.05;0.82;;;5.00;99.90;;;;;;5038793;28;20060;-88
2022/02/20 01:48:14;;;;;;;7.97;0.88;;;5.00;99.90;;;;;;5038837;28;20041;-86
2022/02/20 01:50:40;;;;;;;7.50;1.58;;;5.00;99.90;;;;;;5040806;28;20025;-86
2022/02/20 01:53:05;;;;;;;4.00;1.00;;;5.00;99.90;;;;;;5037969;28;20044;-90
2022/02/20 01:55:31;;;;;;;4.45;0.88;;;5.00;99.90;;;;;;5037373;28;20034;-89
2022/02/20 01:57:57;;;;;;;3.20;0.80;;;5.00;99.90;;;;;;5020051;28;20041;-88
2022/02/20 02:00:24;;;;;;;4.13;0.95;;;5.00;99.90;;;;;;5026853;28;20025;-85
2022/02/20 02:02:51;;;;;;;3.78;0.70;;;5.00;99.90;;;;;;5023483;28;20053;-89
2022/02/20 02:05:17;;;;;;;3.88;0.65;;;5.00;99.90;;;;;;5039459;28;20025;-84
2022/02/20 02:07:42;;;;;;;3.80;0.90;;;5.00;99.90;;;;;;5028295;28;20076;-84
2022/02/20 02:10:08;;;;;;;4.32;0.93;;;5.00;99.90;;;;;;5028759;28;20044;-86
2022/02/20 02:12:36;;;;;;;4.30;1.30;;;5.00;99.90;;;;;;5029694;28;20030;-84
2022/02/20 02:15:02;;;;;;;6.25;0.80;;;5.00;99.90;;;;;;5047708;28;20061;-84
2022/02/20 02:17:30;;;;;;;5.93;0.90;;;5.00;99.90;;;;;;5029676;28;20041;-84
2022/02/20 02:19:56;;;;;;;3.67;0.77;;;5.00;99.90;;;;;;5047075;28;20033;-84
2022/02/20 02:22:26;;;;;;;3.28;1.02;;;5.00;99.90;;;;;;5047044;28;20029;-84
2022/02/20 02:24:53;;;;;;;5.72;0.98;;;5.00;99.90;;;;;;5029452;28;20065;-84
2022/02/20 02:27:19;;;;;;;3.28;0.90;;;5.00;99.90;;;;;;5046749;28;20068;-84
2022/02/20 02:29:46;;;;;;;5.93;1.70;;;5.00;99.90;;;;;;5027237;28;20030;-85
2022/02/20 02:32:12;;;;;;;6.18;1.95;;;5.00;99.90;;;;;;5044311;28;20041;-84
2022/02/20 02:34:39;;;;;;;5.82;1.90;;;5.00;99.90;;;;;;5040539;28;20064;-84
2022/02/20 02:37:05;;;;;;;7.82;2.53;;;5.00;99.90;;;;;;5042456;28;20384;-89
2022/02/20 02:39:31;;;;;;;7.20;1.90;;;5.00;99.90;;;;;;5039456;28;20032;-88
2022/02/20 02:41:57;;;;;;;5.25;1.88;;;5.00;99.90;;;;;;5025350;28;20060;-88
2022/02/20 02:44:24;;;;;;;5.10;1.48;;;5.00;99.90;;;;;;5027939;28;20097;-86
2022/02/20 02:46:49;;;;;;;5.63;1.40;;;5.10;99.90;;;;;;5024379;28;20021;-86
2022/02/20 02:49:16;;;;;;;4.00;1.52;;;5.10;99.90;;;;;;5020463;28;20113;-87
2022/02/20 02:51:42;;;;;;;6.93;1.10;;;5.10;99.90;;;;;;5022706;28;20065;-89
2022/02/20 02:54:11;;;;;;;3.88;0.82;;;5.10;99.90;;;;;;5037306;28;20025;-88
2022/02/20 02:56:38;;;;;;;4.47;0.70;;;5.00;99.90;;;;;;5035446;28;20037;-90
2022/02/20 02:59:05;;;;;;;6.15;0.90;;;5.00;99.90;;;;;;5017999;28;20112;-91
2022/02/20 03:01:31;;;;;;;3.67;0.75;;;5.00;99.90;;;;;;5018124;28;20045;-89
2022/02/20 03:03:57;;;;;;;4.82;0.98;;;5.00;99.90;;;;;;5026354;28;20113;-86
2022/02/20 03:06:23;;;;;;;4.30;0.82;;;5.00;99.90;;;;;;5034912;28;20029;-84
2022/02/20 03:08:49;;;;;;;4.72;1.25;;;5.00;99.90;;;;;;5035562;28;20032;-87
2022/02/20 03:11:15;;;;;;;2.53;0.77;;;5.00;99.90;;;;;;5032949;28;20128;-86
2022/02/20 03:13:41;;;;;;;3.13;0.80;;;5.00;99.90;;;;;;5028335;28;20037;-84
2022/02/20 03:16:07;;;;;;;3.78;0.75;;;5.00;99.90;;;;;;5028232;28;20112;-83
2022/02/20 03:18:32;;;;;;;2.50;0.70;;;5.00;99.90;;;;;;5040357;28;20483;-88
2022/02/20 03:21:03;;;;;;;6.53;1.08;;;5.00;99.90;;;;;;5035449;28;20560;-88
2022/02/20 03:23:29;;;;;;;6.03;1.50;;;5.00;99.90;;;;;;5017410;28;20044;-89
2022/02/20 03:25:56;;;;;;;5.32;0.90;;;5.00;99.90;;;;;;5035047;28;20399;-89
2022/02/20 03:28:21;;;;;;;4.60;1.10;;;4.90;99.90;;;;;;5016964;28;20116;-90
2022/02/20 03:30:47;;;;;;;6.70;1.15;;;4.90;99.90;;;;;;5034900;28;20096;-89
2022/02/20 03:33:13;;;;;;;7.63;1.58;;;4.90;99.90;;;;;;5034712;28;20480;-88
2022/02/20 03:35:39;;;;;;;9.90;1.55;;;4.90;99.90;;;;;;5024291;28;20038;-84
2022/02/20 03:38:06;;;;;;;3.28;1.02;;;4.90;99.90;;;;;;5039825;28;20053;-87
2022/02/20 03:40:32;;;;;;;9.18;1.02;;;4.90;99.90;;;;;;5022578;28;20037;-86
2022/02/20 03:42:59;;;;;;;4.40;1.10;;;4.90;99.90;;;;;;5043400;28;20041;-85
2022/02/20 03:45:29;;;;;;;4.30;0.80;;;4.90;99.90;;;;;;5021720;28;20475;-86
2022/02/20 03:47:54;;;;;;;4.15;1.02;;;4.90;99.90;;;;;;5037681;28;20025;-87
2022/02/20 03:50:20;;;;;;;3.55;0.70;;;4.90;99.90;;;;;;5018171;28;20041;-90
2022/02/20 03:52:47;;;;;;;4.20;1.02;;;4.90;99.90;;;;;;5021430;28;20467;-85
2022/02/20 03:55:13;;;;;;;3.30;0.82;;;4.90;99.90;;;;;;5024717;28;20022;-85
2022/02/20 03:57:39;;;;;;;6.82;1.17;;;4.90;99.90;;;;;;5025136;28;20372;-86
2022/02/20 04:00:16;;;;;;;7.57;1.00;;;4.90;99.90;;;;;;5024312;28;20117;-88
2022/02/20 04:02:42;;;;;;;3.67;1.23;;;4.90;99.90;;;;;;5023070;28;20037;-87
2022/02/20 04:05:13;;;;;;;3.53;1.02;;;4.90;99.90;;;;;;5020911;28;20096;-87
2022/02/20 04:07:39;;;;;;;6.43;1.20;;;4.90;99.90;;;;;;5019606;28;20033;-84
2022/02/20 04:10:07;;;;;;;3.33;1.00;;;4.90;99.90;;;;;;5016679;28;20080;-88
2022/02/20 04:12:33;;;;;;;5.65;1.35;;;4.90;99.90;;;;;;5017923;28;20064;-87
2022/02/20 04:15:00;;;;;;;5.03;1.27;;;4.90;99.90;;;;;;5037503;28;20036;-88
2022/02/20 04:17:26;;;;;;;6.97;1.60;;;4.90;99.90;;;;;;5020134;28;20091;-89
2022/02/20 04:19:52;;;;;;;3.00;1.20;;;4.90;99.90;;;;;;5037604;28;20471;-90
2022/02/20 04:22:20;;;;;;;7.45;1.30;;;4.90;99.90;;;;;;5019540;28;20076;-88
2022/02/20 04:24:46;;;;;;;5.32;1.38;;;4.90;99.90;;;;;;5037573;28;20156;-89
2022/02/20 04:27:12;;;;;;;4.47;1.20;;;4.90;99.90;;;;;;5019892;28;20380;-88
2022/02/20 04:29:38;;;;;;;9.35;1.70;;;4.90;99.90;;;;;;5020234;28;20038;-88
2022/02/20 04:32:04;;;;;;;5.47;1.35;;;4.80;99.90;;;;;;5037498;28;20529;-89
2022/02/20 04:34:30;;;;;;;6.05;1.50;;;4.80;99.90;;;;;;5020048;28;20128;-88
2022/02/20 04:36:55;;;;;;;6.32;1.60;;;4.80;99.90;;;;;;5037061;28;20073;-87
2022/02/20 04:39:21;;;;;;;8.95;2.17;;;4.80;99.90;;;;;;5019633;28;20034;-86
2022/02/20 04:41:48;;;;;;;9.20;1.90;;;4.80;99.90;;;;;;5037783;28;20037;-88
2022/02/20 04:44:14;;;;;;;6.15;1.55;;;4.80;99.90;;;;;;5019680;28;20037;-88
2022/02/20 04:46:40;;;;;;;5.05;1.80;;;4.80;99.90;;;;;;5020174;28;20025;-86
2022/02/20 04:49:07;;;;;;;6.43;2.05;;;4.90;99.90;;;;;;5037886;28;20040;-84
2022/02/20 04:51:34;;;;;;;5.95;1.77;;;4.90;99.90;;;;;;5019793;28;20030;-87
2022/02/20 04:54:01;;;;;;;8.20;3.08;;;4.90;99.90;;;;;;5037578;28;20053;-87
2022/02/20 04:56:27;;;;;;;9.50;2.28;;;4.90;99.90;;;;;;5037669;28;20111;-86
2022/02/20 04:58:53;;;;;;;7.22;2.45;;;4.90;99.90;;;;;;5020139;28;20451;-89
2022/02/20 05:01:19;;;;;;;7.22;2.08;;;4.90;99.90;;;;;;5019905;28;20071;-88
2022/02/20 05:03:46;;;;;;;6.75;2.20;;;4.90;99.90;;;;;;5035848;28;20042;-87
2022/02/20 05:06:12;;;;;;;11.50;3.17;;;4.90;99.90;;;;;;5037295;28;20091;-87
2022/02/20 05:08:38;;;;;;;13.05;3.13;;;4.90;99.90;;;;;;5019679;28;20393;-88
2022/02/20 05:11:04;;;;;;;13.35;4.30;;;4.70;99.90;;;;;;5036840;28;20107;-87
2022/02/20 05:13:30;;;;;;;13.45;3.88;;;4.60;99.90;;;;;;5019339;28;20040;-88
2022/02/20 05:15:55;;;;;;;13.38;4.25;;;4.60;99.90;;;;;;5036872;28;20095;-86
2022/02/20 05:18:21;;;;;;;12.13;5.38;;;4.60;99.90;;;;;;5003237;28;20491;-87
2022/02/20 05:20:47;;;;;;;13.60;6.90;;;4.50;99.90;;;;;;5019539;28;20026;-88
2022/02/20 05:23:13;;;;;;;15.68;6.80;;;4.40;99.90;;;;;;5036569;28;20665;-87
2022/02/20 05:25:38;;;;;;;13.75;7.22;;;4.40;99.90;;;;;;5018273;28;20085;-87
2022/02/20 05:28:04;;;;;;;17.08;8.55;;;4.40;99.90;;;;;;5036856;28;20099;-87
2022/02/20 05:30:30;;;;;;;17.13;8.43;;;4.40;99.90;;;;;;5020083;28;20380;-88
2022/02/20 05:32:56;;;;;;;15.48;8.38;;;4.50;99.90;;;;;;5036482;28;20068;-83
2022/02/20 05:35:22;;;;;;;16.00;7.93;;;4.40;99.90;;;;;;5020297;28;20029;-86
2022/02/20 05:37:50;;;;;;;20.88;10.25;;;4.40;99.90;;;;;;5038280;28;20053;-85
2022/02/20 05:40:19;;;;;;;15.18;9.23;;;4.40;99.90;;;;;;5020584;28;20033;-86
2022/02/20 05:42:45;;;;;;;22.38;11.30;;;4.40;99.90;;;;;;5019970;28;20443;-89
2022/02/20 05:45:11;;;;;;;23.50;10.30;;;4.40;99.90;;;;;;5039614;28;20029;-84
2022/02/20 05:47:37;;;;;;;21.58;11.15;;;4.40;99.90;;;;;;5040535;28;20531;-84
2022/02/20 05:50:05;;;;;;;29.52;12.35;;;4.40;99.90;;;;;;5041685;28;20136;-87
2022/02/20 05:52:31;;;;;;;20.88;12.07;;;4.40;99.90;;;;;;5044793;28;20109;-84
2022/02/20 05:54:57;;;;;;;24.42;12.13;;;4.40;99.90;;;;;;5047148;28;20030;-82
2022/02/20 05:57:23;;;;;;;18.77;12.32;;;4.40;99.90;;;;;;5028878;28;20037;-82
2022/02/20 05:59:50;;;;;;;24.05;13.55;;;4.40;99.90;;;;;;5047388;28;20033;-82
2022/02/20 06:02:15;;;;;;;26.80;14.18;;;4.40;99.90;;;;;;5029610;28;20096;-81
2022/02/20 06:04:41;;;;;;;29.23;13.75;;;4.50;99.90;;;;;;5029613;28;20048;-82
2022/02/20 06:07:07;;;;;;;31.25;13.70;;;4.50;99.90;;;;;;5047193;28;20030;-81
2022/02/20 06:09:33;;;;;;;29.25;12.82;;;4.50;99.90;;;;;;5029247;28;20572;-81
2022/02/20 06:11:58;;;;;;;28.83;11.85;;;4.50;99.90;;;;;;5030281;28;20049;-82
2022/02/20 06:14:24;;;;;;;27.20;11.73;;;4.60;99.90;;;;;;5046497;28;20033;-81
2022/02/20 06:16:50;;;;;;;37.65;13.45;;;4.60;99.90;;;;;;5012249;28;20037;-85
2022/02/20 06:19:16;;;;;;;33.10;14.70;;;4.70;99.90;;;;;;5045128;28;20053;-82
2022/02/20 06:21:42;;;;;;;31.80;13.60;;;4.70;99.90;;;;;;5012202;28;20517;-80
2022/02/20 06:24:10;;;;;;;34.25;13.38;;;4.70;99.90;;;;;;5046152;28;20068;-82
2022/02/20 06:26:36;;;;;;;38.97;13.35;;;4.80;99.90;;;;;;5028536;28;20040;-85
2022/02/20 06:29:02;;;;;;;31.52;12.55;;;4.90;99.90;;;;;;5045184;28;20053;-85
2022/02/20 06:31:27;;;;;;;30.83;13.02;;;4.90;99.90;;;;;;5026095;28;20029;-86
2022/02/20 06:33:53;;;;;;;28.38;12.35;;;5.00;99.90;;;;;;5020551;28;20037;-86
2022/02/20 06:36:20;;;;;;;33.83;13.10;;;5.00;99.90;;;;;;5036263;28;20097;-87
2022/02/20 06:38:46;;;;;;;27.90;11.98;;;5.00;99.90;;;;;;5037129;28;20054;-88
2022/02/20 06:41:11;;;;;;;28.92;11.73;;;5.10;99.90;;;;;;5019014;28;20029;-86
2022/02/20 06:43:38;;;;;;;28.83;11.55;;;5.10;99.90;;;;;;5018467;28;20673;-88
2022/02/20 06:46:04;;;;;;;32.35;10.80;;;5.20;99.90;;;;;;5037477;28;20112;-86
2022/02/20 06:48:30;;;;;;;21.50;9.00;;;5.20;99.90;;;;;;5020553;28;20567;-87
2022/02/20 06:50:56;;;;;;;29.42;10.30;;;5.30;99.90;;;;;;5027104;28;20053;-85
2022/02/20 06:53:22;;;;;;;27.67;11.00;;;5.30;99.90;;;;;;5026516;28;20033;-87
2022/02/20 06:55:47;;;;;;;30.38;12.15;;;5.40;99.90;;;;;;5024976;28;20025;-82
2022/02/20 06:58:13;;;;;;;29.10;10.38;;;5.40;99.90;;;;;;5027143;28;20109;-83
2022/02/20 07:00:39;;;;;;;28.08;9.15;;;5.50;99.90;;;;;;5022205;28;20033;-85
2022/02/20 07:03:04;;;;;;;26.08;8.77;;;5.60;99.90;;;;;;5036912;28;20048;-88
2022/02/20 07:05:30;;;;;;;26.77;9.60;;;5.70;99.90;;;;;;5036367;28;20021;-86
2022/02/20 07:07:59;;;;;;;24.83;7.90;;;5.70;99.90;;;;;;5036381;28;20103;-86
2022/02/20 07:10:25;;;;;;;25.33;9.18;;;5.70;99.90;;;;;;5002428;28;20064;-87
2022/02/20 07:12:51;;;;;;;27.83;7.85;;;5.80;99.90;;;;;;5037991;28;20038;-87
2022/02/20 07:15:16;;;;;;;21.17;6.90;;;5.90;99.90;;;;;;5036702;28;20045;-88
2022/02/20 07:17:42;;;;;;;21.77;7.72;;;5.90;99.90;;;;;;5036777;28;20029;-87
2022/02/20 07:20:10;;;;;;;26.17;7.13;;;6.00;99.90;;;;;;5020558;28;20026;-88
2022/02/20 07:22:35;;;;;;;19.60;7.47;;;6.00;99.90;;;;;;5018892;28;20037;-87
2022/02/20 07:25:02;;;;;;;21.55;6.93;;;6.10;99.90;;;;;;5035076;28;20034;-87
2022/02/20 07:27:36;;;;;;;20.15;6.82;;;6.10;99.90;;;;;;5017133;28;20537;-88
2022/02/20 07:30:04;;;;;;;17.85;6.10;;;6.20;99.90;;;;;;5034874;28;20060;-88
2022/02/20 07:32:29;;;;;;;15.10;5.97;;;6.20;99.90;;;;;;5034558;28;20033;-87
2022/02/20 07:34:55;;;;;;;22.23;6.47;;;6.30;99.90;;;;;;5034772;28;20030;-87
2022/02/20 07:37:20;;;;;;;20.83;5.88;;;6.30;99.90;;;;;;5016576;28;20092;-87
2022/02/20 07:39:47;;;;;;;19.25;4.95;;;6.50;99.90;;;;;;5034333;28;20036;-86
2022/02/20 07:42:13;;;;;;;16.55;5.57;;;6.50;99.90;;;;;;5034225;28;20093;-87
2022/02/20 07:44:39;;;;;;;20.10;4.95;;;6.60;99.90;;;;;;5016557;28;20128;-87
2022/02/20 07:47:04;;;;;;;21.13;5.90;;;6.70;99.90;;;;;;5036309;28;20036;-87
2022/02/20 07:49:30;;;;;;;15.63;5.47;;;6.80;99.90;;;;;;5041212;28;20116;-88
2022/02/20 07:51:56;;;;;;;13.07;4.65;;;6.80;99.90;;;;;;5041472;28;20104;-87
2022/02/20 07:54:22;;;;;;;16.58;5.72;;;6.90;99.90;;;;;;5040560;28;20041;-87
2022/02/20 07:56:47;;;;;;;15.40;4.50;;;7.00;99.90;;;;;;5045306;28;20045;-86
2022/02/20 07:59:13;;;;;;;10.52;3.92;;;7.00;99.90;;;;;;5043956;28;20116;-88
2022/02/20 08:01:38;;;;;;;17.92;5.13;;;7.10;99.90;;;;;;5042039;28;20033;-86
2022/02/20 08:04:04;;;;;;;15.57;5.28;;;7.20;99.90;;;;;;5024404;28;20045;-86
2022/02/20 08:06:31;;;;;;;13.98;5.90;;;7.30;99.90;;;;;;5022561;28;20130;-89
2022/02/20 08:08:58;;;;;;;13.68;4.82;;;7.30;99.90;;;;;;5039330;28;20037;-85
2022/02/20 08:11:24;;;;;;;14.82;5.35;;;7.40;99.90;;;;;;5021038;28;20558;-87
2022/02/20 08:13:49;;;;;;;11.05;4.68;;;7.50;99.90;;;;;;5038671;28;20060;-86
2022/02/20 08:16:15;;;;;;;12.68;5.55;;;7.50;99.90;;;;;;5021859;28;20053;-89
2022/02/20 08:18:41;;;;;;;11.30;5.28;;;7.60;99.90;;;;;;5039229;28;20044;-88
2022/02/20 08:21:06;;;;;;;11.00;5.95;;;7.70;99.90;;;;;;5039643;28;20049;-87
2022/02/20 08:23:32;;;;;;;11.68;5.95;;;7.70;99.90;;;;;;5041412;28;20049;-87
2022/02/20 08:25:58;;;;;;;12.30;5.82;;;7.80;99.90;;;;;;5043934;28;20040;-85
2022/02/20 08:28:23;;;;;;;12.95;5.82;;;8.00;99.90;;;;;;5023598;28;20376;-87
2022/02/20 08:30:49;;;;;;;9.75;5.30;;;8.00;99.90;;;;;;5040001;28;20041;-89
2022/02/20 08:33:15;;;;;;;10.32;5.28;;;8.00;99.90;;;;;;5023214;28;20037;-88
2022/02/20 08:35:40;;;;;;;9.13;5.18;;;8.10;99.90;;;;;;5043710;28;20422;-84
2022/02/20 08:38:08;;;;;;;10.77;5.43;;;8.10;99.90;;;;;;5045577;28;20062;-85
2022/02/20 08:40:34;;;;;;;9.75;5.45;;;8.20;99.90;;;;;;5044586;28;20545;-87
2022/02/20 08:43:00;;;;;;;12.43;6.05;;;8.20;99.90;;;;;;5027441;28;20041;-86
2022/02/20 08:45:26;;;;;;;8.07;5.63;;;8.30;99.90;;;;;;5045528;28;20037;-88
2022/02/20 08:47:52;;;;;;;10.32;6.28;;;8.30;99.90;;;;;;5025547;28;20067;-87
2022/02/20 08:50:17;;;;;;;12.00;6.57;;;8.30;99.90;;;;;;5023866;28;20034;-87
2022/02/20 08:52:45;;;;;;;12.82;6.72;;;8.40;99.90;;;;;;5024363;28;20033;-88
2022/02/20 08:55:11;;;;;;;13.90;7.50;;;8.50;99.90;;;;;;5024243;28;20104;-87
2022/02/20 08:57:37;;;;;;;12.00;7.75;;;8.50;99.90;;;;;;5043009;28;20045;-86
2022/02/20 09:00:07;;;;;;;13.88;7.63;;;8.50;99.90;;;;;;5010772;28;20034;-86
2022/02/20 09:02:33;;;;;;;16.58;7.85;;;8.60;99.90;;;;;;5010439;28;20137;-86
2022/02/20 09:04:59;;;;;;;13.00;8.32;;;8.60;99.90;;;;;;5003613;28;20027;-83
2022/02/20 09:07:24;;;;;;;17.40;8.68;;;8.60;99.90;;;;;;5003380;28;20057;-84
2022/02/20 09:09:50;;;;;;;24.80;11.00;;;8.70;99.90;;;;;;4988312;28;20041;-84
2022/02/20 09:12:16;;;;;;;22.80;9.85;;;8.70;99.90;;;;;;5006604;28;20053;-84
2022/02/20 09:14:41;;;;;;;19.73;10.57;;;8.80;99.90;;;;;;5003149;28;20046;-88
2022/02/20 09:17:07;;;;;;;24.70;10.50;;;8.80;99.90;;;;;;4997908;28;20046;-91
2022/02/20 09:19:33;;;;;;;22.77;11.07;;;8.90;99.90;;;;;;4998847;28;20030;-88
2022/02/20 09:21:59;;;;;;;24.15;11.02;;;8.90;99.90;;;;;;4995821;28;20038;-88
2022/02/20 09:24:24;;;;;;;25.73;12.73;;;9.00;99.90;;;;;;4995540;28;20105;-88
2022/02/20 09:26:50;;;;;;;23.00;11.82;;;9.00;99.90;;;;;;4993727;28;20527;-87
2022/02/20 09:29:18;;;;;;;25.52;13.20;;;9.00;99.90;;;;;;4993414;28;20046;-87
2022/02/20 09:31:44;;;;;;;25.27;11.73;;;9.10;99.90;;;;;;5011643;28;20041;-86
2022/02/20 09:34:10;;;;;;;29.08;12.85;;;9.10;99.90;;;;;;4995389;28;20033;-87
2022/02/20 09:36:36;;;;;;;32.20;12.70;;;9.20;99.90;;;;;;5012699;28;20495;-86
2022/02/20 09:39:03;;;;;;;26.88;12.18;;;9.20;99.90;;;;;;4995859;28;20096;-86
2022/02/20 09:41:35;;;;;;;26.83;12.95;;;9.30;99.90;;;;;;5013419;28;20034;-88
2022/02/20 09:44:02;;;;;;;28.15;12.43;;;9.40;99.90;;;;;;4996366;28;20068;-89
2022/02/20 09:46:31;;;;;;;28.73;13.05;;;9.40;99.90;;;;;;4996207;28;20038;-89
2022/02/20 09:48:58;;;;;;;29.40;13.32;;;9.50;99.90;;;;;;4997893;28;20064;-89
2022/02/20 09:51:25;;;;;;;29.98;13.95;;;9.50;99.90;;;;;;4998314;28;20045;-89
2022/02/20 09:53:51;;;;;;;34.53;12.50;;;9.60;99.90;;;;;;4998422;28;20038;-88
2022/02/20 09:56:17;;;;;;;30.48;11.77;;;9.70;99.90;;;;;;4996922;28;20049;-87
2022/02/20 09:58:42;;;;;;;27.17;11.27;;;9.70;99.90;;;;;;4999451;28;20030;-88
2022/02/20 10:01:12;;;;;;;28.52;11.65;;;9.70;99.90;;;;;;5012371;28;20033;-88
2022/02/20 10:03:43;;;;;;;26.83;10.40;;;9.80;99.90;;;;;;5023490;28;20033;-89
2022/02/20 10:06:14;;;;;;;31.02;11.05;;;9.80;99.90;;;;;;5014009;28;20026;-89
2022/02/20 10:08:47;;;;;;;30.02;11.55;;;9.90;99.90;;;;;;5012351;28;20025;-89
2022/02/20 10:11:14;;;;;;;;;;;9.90;99.90;;;;;;4998080;28;20040;-90
2022/02/20 10:13:40;;;;;;;34.05;10.43;;;9.90;99.90;;;;;;4997842;28;19917;-90
2022/02/20 10:16:29;;;;;;;26.52;10.02;;;9.90;99.90;;;;;;4997630;28;20030;-92
2022/02/20 10:18:57;;;;;;;33.80;10.23;;;9.90;99.90;;;;;;4998263;28;20037;-88
2022/02/20 10:21:24;;;;;;;38.63;10.25;;;10.00;99.90;;;;;;5007442;28;20042;-88
2022/02/20 10:23:52;;;;;;;44.08;10.55;;;10.00;99.90;;;;;;5000548;28;20117;-88
2022/02/20 10:26:24;;;;;;;36.50;11.50;;;10.00;99.90;;;;;;5001527;28;20038;-90
2022/02/20 10:29:07;;;;;;;34.60;10.45;;;10.00;99.90;;;;;;4997984;28;20395;-89
2022/02/20 10:31:43;;;;;;;37.50;10.10;;;10.00;99.90;;;;;;4997843;28;20037;-88
2022/02/20 10:34:18;;;;;;;37.88;9.23;;;10.00;99.90;;;;;;4997262;28;20030;-90
2022/02/20 10:36:50;;;;;;;42.83;11.10;;;10.00;99.90;;;;;;4997562;28;20139;-93
2022/02/20 10:39:26;;;;;;;42.00;10.97;;;10.00;99.90;;;;;;4996422;28;20033;-91
2022/02/20 10:41:58;;;;;;;41.63;9.95;;;10.00;99.90;;;;;;4998001;28;20042;-91
2022/02/20 10:44:25;;;;;;;36.30;8.63;;;10.00;99.90;;;;;;5006341;28;20109;-89
2022/02/20 10:47:10;;;;;;;30.92;7.97;;;10.00;99.90;;;;;;5003537;28;20049;-89
2022/02/20 10:49:36;;;;;;;38.15;7.88;;;10.00;99.90;;;;;;4999149;28;20065;-91
2022/02/20 10:52:02;;;;;;;35.72;10.63;;;10.00;99.90;;;;;;4996888;28;20026;-88
2022/02/20 10:54:28;;;;;;;38.67;8.65;;;9.90;99.90;;;;;;5014435;28;20116;-92
2022/02/20 10:56:54;;;;;;;37.42;9.30;;;9.90;99.90;;;;;;4996817;28;20073;-91
2022/02/20 10:59:21;;;;;;;37.78;8.05;;;9.80;99.90;;;;;;4996516;28;20084;-87
2022/02/20 11:01:51;;;;;;;40.65;9.13;;;9.80;99.90;;;;;;5013049;28;20042;-88
2022/02/20 11:04:19;;;;;;;37.75;8.57;;;9.70;99.90;;;;;;4995300;28;20113;-89
2022/02/20 11:06:48;;;;;;;39.40;8.75;;;9.70;99.90;;;;;;4995054;28;20037;-87
2022/02/20 11:09:15;;;;;;;36.35;8.93;;;9.70;99.90;;;;;;4994595;28;20033;-89
2022/02/20 11:11:49;;;;;;;33.80;7.90;;;9.80;99.90;;;;;;5012444;28;20085;-88
2022/02/20 11:14:21;;;;;;;37.58;9.10;;;9.80;99.90;;;;;;5013363;28;20025;-88
2022/02/20 11:16:53;;;;;;;27.92;6.35;;;9.80;99.90;;;;;;5012311;28;20040;-92
2022/02/20 11:19:26;;;;;;;36.42;8.43;;;9.70;99.90;;;;;;5014087;28;20033;-90
2022/02/20 11:21:55;;;;;;;36.42;9.50;;;9.70;99.90;;;;;;4994311;28;20029;-86
2022/02/20 11:24:22;;;;;;;32.00;7.03;;;9.70;99.90;;;;;;4993643;28;20034;-86
2022/02/20 11:26:49;;;;;;;40.83;8.80;;;9.70;99.90;;;;;;5004080;28;20073;-85
2022/02/20 11:29:14;;;;;;;41.03;8.15;;;9.70;99.90;;;;;;5006480;28;20029;-87
2022/02/20 11:31:41;;;;;;;35.97;7.38;;;9.70;99.90;;;;;;4993221;28;20519;-90
2022/02/20 11:34:08;;;;;;;32.50;8.20;;;9.70;99.90;;;;;;4995499;28;20095;-87
2022/02/20 11:36:34;;;;;;;36.92;7.70;;;9.70;99.90;;;;;;4993605;28;20037;-86
2022/02/20 11:39:13;;;;;;;34.63;6.20;;;9.70;99.90;;;;;;4975851;28;20050;-89
2022/02/20 11:42:00;;;;;;;31.52;6.28;;;9.70;99.90;;;;;;4975527;28;20046;-87
2022/02/20 11:44:26;;;;;;;34.30;6.60;;;9.70;99.90;;;;;;4980589;28;20065;-87
2022/02/20 11:46:53;;;;;;;38.00;6.65;;;9.70;99.90;;;;;;4983667;28;20465;-88
2022/02/20 11:49:27;;;;;;;40.65;7.20;;;9.70;99.90;;;;;;4980294;28;20038;-87
2022/02/20 11:52:05;;;;;;;41.97;9.35;;;9.60;99.90;;;;;;4987726;28;20042;-88
2022/02/20 11:54:33;;;;;;;37.65;7.55;;;9.70;99.90;;;;;;4982940;28;20484;-86
2022/02/20 11:57:35;;;;;;;29.77;6.82;;;9.60;99.90;;;;;;4980018;28;20022;-87
2022/02/20 12:00:03;;;;;;;24.27;6.40;;;9.60;99.90;;;;;;5005764;28;20029;-88
2022/02/20 12:02:33;;;;;;;29.55;6.43;;;9.60;99.90;;;;;;4997170;28;20096;-87
2022/02/20 12:04:58;;;;;;;28.73;5.43;;;9.60;99.90;;;;;;4997572;28;20052;-90
2022/02/20 12:07:44;;;;;;;38.08;6.55;;;9.60;99.90;;;;;;4997113;28;20041;-89
2022/02/20 12:10:28;;;;;;;34.70;8.10;;;9.60;99.90;;;;;;4996706;28;20040;-88
2022/02/20 12:12:57;;;;;;;31.77;5.82;;;9.60;99.90;;;;;;4989699;28;20026;-87
2022/02/20 12:15:29;;;;;;;29.20;6.57;;;9.50;99.90;;;;;;4989298;28;20038;-89
2022/02/20 12:18:10;;;;;;;29.10;6.40;;;9.60;99.90;;;;;;4999996;28;20027;-90
2022/02/20 12:20:51;;;;;;;34.83;8.20;;;9.50;99.90;;;;;;4996021;28;20039;-88
2022/02/20 12:23:33;;;;;;;25.90;6.30;;;9.50;99.90;;;;;;4993401;28;20050;-89
2022/02/20 12:26:05;;;;;;;34.20;8.15;;;9.50;99.90;;;;;;4994163;28;20042;-88
2022/02/20 12:28:34;;;;;;;35.92;8.63;;;9.50;99.90;;;;;;4992986;28;20217;-89
2022/02/20 12:31:15;;;;;;;32.97;7.65;;;9.50;99.90;;;;;;4991529;28;20027;-84
2022/02/20 12:33:48;;;;;;;28.33;7.18;;;9.40;99.90;;;;;;4976705;28;20045;-87
2022/02/20 12:36:24;;;;;;;27.48;6.63;;;9.40;99.90;;;;;;4983760;28;20073;-88
2022/02/20 12:38:52;;;;;;;32.88;8.32;;;9.40;99.90;;;;;;4999772;28;20054;-88
2022/02/20 12:41:21;;;;;;;30.77;7.47;;;9.40;99.90;;;;;;4999797;28;20034;-84
2022/02/20 12:43:51;;;;;;;26.30;7.43;;;9.40;99.90;;;;;;5000608;28;20061;-88
2022/02/20 12:46:17;;;;;;;32.45;7.57;;;9.40;99.90;;;;;;5000555;28;20037;-84
2022/02/20 12:48:43;;;;;;;29.55;8.70;;;9.40;99.90;;;;;;5002032;28;20077;-88